createdAt,value
2019-05-16T00:00:08.394Z,0.00
2019-05-16T00:01:09.351Z,0.00
2019-05-16T00:02:08.214Z,0.00
2019-05-16T00:03:08.040Z,0.00
2019-05-16T00:04:08.678Z,0.00
2019-05-16T00:05:08.372Z,0.00
2019-05-16T00:06:08.545Z,0.00
2019-05-16T00:07:08.070Z,0.00
2019-05-16T00:08:11.913Z,0.00
2019-05-16T00:09:08.129Z,0.00
2019-05-16T00:10:08.372Z,0.00
2019-05-16T00:11:08.630Z,0.00
2019-05-16T00:12:08.799Z,0.00
2019-05-16T00:13:08.530Z,0.00
2019-05-16T00:14:08.399Z,0.00
2019-05-16T00:15:09.085Z,0.00
2019-05-16T00:16:07.976Z,0.00
2019-05-16T00:17:08.354Z,0.00
2019-05-16T00:18:08.728Z,0.00
2019-05-16T00:19:09.129Z,0.00
2019-05-16T00:20:09.298Z,0.00
2019-05-16T00:21:08.712Z,0.00
2019-05-16T00:22:08.713Z,0.00
2019-05-16T00:23:07.912Z,0.00
2019-05-16T00:24:08.198Z,0.00
2019-05-16T00:25:08.661Z,0.00
2019-05-16T00:26:07.836Z,0.00
2019-05-16T00:27:08.320Z,0.00
2019-05-16T00:28:08.817Z,0.00
2019-05-16T00:29:08.009Z,0.00
2019-05-16T00:30:08.902Z,0.00
2019-05-16T00:31:08.649Z,0.00
2019-05-16T00:32:08.545Z,0.00
2019-05-16T00:33:08.312Z,0.00
2019-05-16T00:34:06.810Z,0.00
2019-05-16T00:35:08.886Z,0.00
2019-05-16T00:36:08.959Z,0.00
2019-05-16T00:37:08.669Z,0.00
2019-05-16T00:38:08.696Z,0.00
2019-05-16T00:39:08.402Z,0.00
2019-05-16T00:40:08.218Z,0.00
2019-05-16T00:41:08.516Z,0.00
2019-05-16T00:42:08.787Z,0.00
2019-05-16T00:43:08.047Z,0.00
2019-05-16T00:44:08.413Z,0.00
2019-05-16T00:45:08.878Z,0.00
2019-05-16T00:46:08.244Z,0.00
2019-05-16T00:47:08.705Z,0.00
2019-05-16T00:48:08.794Z,0.00
2019-05-16T00:49:08.302Z,0.00
2019-05-16T00:50:08.630Z,0.00
2019-05-16T00:51:07.814Z,0.00
2019-05-16T00:52:07.791Z,0.00
2019-05-16T00:53:08.966Z,0.00
2019-05-16T00:54:08.251Z,0.00
2019-05-16T00:55:08.385Z,0.00
2019-05-16T00:56:07.921Z,0.00
2019-05-16T00:57:08.500Z,0.00
2019-05-16T00:58:08.679Z,0.00
2019-05-16T00:59:07.918Z,0.00
2019-05-16T01:00:08.257Z,0.00
2019-05-16T01:01:08.589Z,0.00
2019-05-16T01:02:08.840Z,0.00
2019-05-16T01:03:08.148Z,0.00
2019-05-16T01:04:07.975Z,0.00
2019-05-16T01:05:08.494Z,0.00
2019-05-16T01:06:18.399Z,0.00
2019-05-16T01:07:08.238Z,0.00
2019-05-16T01:08:07.839Z,0.00
2019-05-16T01:09:08.522Z,0.00
2019-05-16T01:10:08.767Z,0.00
2019-05-16T01:11:07.903Z,0.00
2019-05-16T01:12:08.362Z,0.00
2019-05-16T01:13:08.013Z,0.00
2019-05-16T01:14:08.301Z,0.00
2019-05-16T01:15:07.708Z,0.00
2019-05-16T01:16:08.389Z,0.00
2019-05-16T01:17:08.482Z,0.00
2019-05-16T01:18:08.041Z,0.00
2019-05-16T01:19:08.539Z,0.00
2019-05-16T01:20:08.333Z,0.00
2019-05-16T01:21:07.831Z,0.00
2019-05-16T01:22:08.360Z,0.00
2019-05-16T01:23:08.717Z,0.00
2019-05-16T01:24:08.015Z,0.00
2019-05-16T01:25:09.030Z,0.00
2019-05-16T01:26:07.929Z,0.00
2019-05-16T01:27:08.222Z,0.00
2019-05-16T01:28:06.250Z,0.00
2019-05-16T01:29:08.129Z,0.00
2019-05-16T01:30:06.231Z,0.00
2019-05-16T01:31:08.394Z,0.00
2019-05-16T01:32:08.233Z,0.00
2019-05-16T01:33:08.663Z,0.00
2019-05-16T01:34:07.811Z,0.00
2019-05-16T01:35:08.195Z,0.00
2019-05-16T01:36:06.157Z,0.00
2019-05-16T01:37:08.142Z,0.00
2019-05-16T01:38:08.507Z,0.00
2019-05-16T01:39:08.017Z,0.00
2019-05-16T01:40:08.038Z,0.00
2019-05-16T01:41:08.616Z,0.00
2019-05-16T01:42:07.957Z,0.00
2019-05-16T01:43:08.400Z,0.00
2019-05-16T01:44:07.861Z,0.00
2019-05-16T01:45:08.101Z,0.00
2019-05-16T01:46:08.257Z,0.00
2019-05-16T01:47:06.039Z,0.00
2019-05-16T01:48:08.052Z,0.00
2019-05-16T01:49:08.085Z,0.00
2019-05-16T01:50:06.005Z,0.00
2019-05-16T01:51:07.752Z,0.00
2019-05-16T01:52:08.303Z,0.00
2019-05-16T01:53:08.444Z,0.00
2019-05-16T01:54:05.967Z,0.00
2019-05-16T01:55:08.012Z,0.00
2019-05-16T01:56:05.944Z,0.00
2019-05-16T01:57:08.004Z,0.00
2019-05-16T01:58:07.858Z,0.00
2019-05-16T01:59:05.931Z,0.00
2019-05-16T02:00:08.190Z,0.00
2019-05-16T02:01:13.241Z,0.00
2019-05-16T02:02:08.434Z,0.00
2019-05-16T02:03:08.112Z,0.00
2019-05-16T02:04:05.866Z,0.00
2019-05-16T02:05:08.105Z,0.00
2019-05-16T02:06:05.833Z,0.00
2019-05-16T02:07:08.389Z,0.00
2019-05-16T02:08:05.840Z,0.00
2019-05-16T02:09:08.071Z,0.00
2019-05-16T02:10:08.526Z,0.00
2019-05-16T02:11:05.787Z,0.00
2019-05-16T02:12:08.203Z,0.00
2019-05-16T02:13:05.800Z,0.00
2019-05-16T02:14:05.759Z,0.00
2019-05-16T02:15:07.741Z,0.00
2019-05-16T02:16:08.167Z,0.00
2019-05-16T02:17:05.718Z,0.00
2019-05-16T02:18:08.018Z,0.00
2019-05-16T02:19:05.703Z,0.00
2019-05-16T02:20:05.692Z,0.00
2019-05-16T02:21:07.739Z,0.00
2019-05-16T02:22:05.675Z,0.00
2019-05-16T02:23:07.886Z,0.00
2019-05-16T02:24:05.648Z,0.00
2019-05-16T02:25:07.643Z,0.00
2019-05-16T02:26:07.833Z,0.00
2019-05-16T02:27:05.618Z,0.00
2019-05-16T02:28:05.600Z,0.00
2019-05-16T02:29:05.596Z,0.00
2019-05-16T02:30:05.600Z,0.00
2019-05-16T02:31:05.573Z,0.00
2019-05-16T02:32:05.589Z,0.00
2019-05-16T02:33:05.549Z,0.00
2019-05-16T02:34:05.543Z,0.00
2019-05-16T02:35:05.552Z,0.00
2019-05-16T02:36:05.516Z,0.00
2019-05-16T02:37:20.216Z,0.00
2019-05-16T02:38:06.494Z,0.00
2019-05-16T02:39:05.515Z,0.00
2019-05-16T02:40:05.489Z,0.00
2019-05-16T02:41:05.478Z,0.00
2019-05-16T02:42:05.465Z,0.00
2019-05-16T02:43:05.445Z,0.00
2019-05-16T02:44:05.500Z,0.00
2019-05-16T02:45:05.443Z,0.00
2019-05-16T02:46:05.415Z,0.00
2019-05-16T02:47:05.408Z,0.00
2019-05-16T02:48:05.420Z,0.00
2019-05-16T02:49:05.398Z,0.00
2019-05-16T02:50:05.373Z,0.00
2019-05-16T02:51:05.366Z,0.00
2019-05-16T02:52:05.362Z,0.00
2019-05-16T02:53:05.339Z,0.00
2019-05-16T02:54:05.354Z,0.00
2019-05-16T02:55:05.316Z,0.00
2019-05-16T02:56:05.326Z,0.00
2019-05-16T02:57:05.295Z,0.00
2019-05-16T02:58:05.297Z,0.00
2019-05-16T02:59:05.288Z,0.00
2019-05-16T03:00:05.262Z,0.00
2019-05-16T03:01:05.272Z,0.00
2019-05-16T03:02:05.241Z,0.00
2019-05-16T03:03:05.253Z,0.00
2019-05-16T03:04:05.232Z,0.00
2019-05-16T03:05:05.264Z,0.00
2019-05-16T03:06:05.203Z,0.00
2019-05-16T03:07:05.188Z,0.00
2019-05-16T03:08:05.188Z,0.00
2019-05-16T03:09:05.625Z,0.00
2019-05-16T03:10:05.162Z,0.00
2019-05-16T03:11:05.150Z,0.00
2019-05-16T03:12:05.136Z,0.00
2019-05-16T03:13:05.123Z,0.00
2019-05-16T03:14:05.114Z,0.00
2019-05-16T03:15:05.120Z,0.00
2019-05-16T03:16:05.095Z,0.00
2019-05-16T03:17:05.106Z,0.00
2019-05-16T03:18:05.074Z,0.00
2019-05-16T03:19:05.061Z,0.00
2019-05-16T03:20:05.073Z,0.00
2019-05-16T03:21:05.053Z,0.00
2019-05-16T03:22:05.029Z,0.00
2019-05-16T03:23:05.026Z,0.00
2019-05-16T03:24:05.018Z,0.00
2019-05-16T03:25:05.008Z,0.00
2019-05-16T03:26:04.988Z,0.00
2019-05-16T03:27:04.979Z,0.00
2019-05-16T03:28:04.966Z,0.00
2019-05-16T03:29:04.968Z,0.00
2019-05-16T03:30:04.967Z,0.00
2019-05-16T03:31:06.263Z,0.00
2019-05-16T03:32:04.930Z,0.00
2019-05-16T03:33:05.917Z,0.00
2019-05-16T03:34:07.462Z,0.00
2019-05-16T03:35:06.070Z,0.00
2019-05-16T03:36:05.394Z,0.00
2019-05-16T03:37:05.192Z,0.00
2019-05-16T03:38:05.885Z,0.00
2019-05-16T03:39:04.850Z,0.00
2019-05-16T03:40:04.862Z,0.00
2019-05-16T03:41:04.837Z,0.00
2019-05-16T03:42:04.819Z,5.62
2019-05-16T03:43:04.822Z,5.62
2019-05-16T03:44:04.809Z,5.62
2019-05-16T03:45:04.807Z,5.62
2019-05-16T03:46:04.776Z,5.62
2019-05-16T03:47:04.811Z,5.62
2019-05-16T03:48:04.755Z,5.62
2019-05-16T03:49:04.775Z,11.25
2019-05-16T03:50:04.756Z,11.25
2019-05-16T03:51:04.736Z,11.25
2019-05-16T03:52:04.716Z,11.25
2019-05-16T03:53:04.716Z,11.25
2019-05-16T03:54:04.705Z,11.25
2019-05-16T03:55:04.792Z,11.25
2019-05-16T03:56:04.671Z,16.88
2019-05-16T03:57:04.658Z,16.88
2019-05-16T03:58:04.649Z,16.88
2019-05-16T03:59:04.636Z,16.88
2019-05-16T04:00:04.629Z,16.88
2019-05-16T04:01:04.621Z,16.88
2019-05-16T04:02:04.625Z,22.50
2019-05-16T04:03:04.598Z,22.50
2019-05-16T04:04:04.602Z,22.50
2019-05-16T04:05:04.580Z,22.50
2019-05-16T04:06:04.588Z,22.50
2019-05-16T04:07:04.584Z,22.50
2019-05-16T04:08:14.732Z,22.50
2019-05-16T04:09:05.530Z,22.50
2019-05-16T04:10:04.555Z,28.12
2019-05-16T04:11:04.522Z,28.12
2019-05-16T04:12:04.501Z,28.12
2019-05-16T04:13:04.653Z,28.12
2019-05-16T04:14:04.487Z,33.75
2019-05-16T04:15:04.466Z,33.75
2019-05-16T04:16:04.488Z,33.75
2019-05-16T04:17:04.451Z,33.75
2019-05-16T04:18:04.438Z,33.75
2019-05-16T04:19:04.424Z,39.38
2019-05-16T04:20:04.414Z,39.38
2019-05-16T04:21:04.431Z,39.38
2019-05-16T04:22:04.394Z,39.38
2019-05-16T04:23:04.384Z,39.38
2019-05-16T04:24:04.372Z,39.38
2019-05-16T04:25:04.361Z,45.00
2019-05-16T04:26:04.360Z,45.00
2019-05-16T04:27:04.352Z,45.00
2019-05-16T04:28:04.332Z,50.62
2019-05-16T04:29:04.338Z,50.62
2019-05-16T04:30:04.324Z,50.62
2019-05-16T04:31:04.320Z,50.62
2019-05-16T04:32:04.289Z,50.62
2019-05-16T04:33:04.284Z,56.25
2019-05-16T04:34:04.271Z,56.25
2019-05-16T04:35:04.257Z,56.25
2019-05-16T04:36:04.259Z,56.25
2019-05-16T04:37:04.350Z,56.25
2019-05-16T04:38:04.227Z,61.88
2019-05-16T04:39:04.214Z,61.88
2019-05-16T04:40:04.214Z,61.88
2019-05-16T04:41:04.212Z,61.88
2019-05-16T04:42:04.209Z,67.50
2019-05-16T04:43:04.174Z,67.50
2019-05-16T04:44:04.898Z,73.12
2019-05-16T04:45:04.161Z,73.12
2019-05-16T04:46:04.160Z,73.12
2019-05-16T04:47:04.139Z,73.12
2019-05-16T04:48:04.129Z,78.75
2019-05-16T04:49:04.120Z,78.75
2019-05-16T04:50:04.106Z,78.75
2019-05-16T04:51:04.085Z,84.38
2019-05-16T04:52:04.105Z,84.38
2019-05-16T04:53:04.064Z,84.38
2019-05-16T04:54:07.200Z,84.38
2019-05-16T04:55:04.046Z,84.38
2019-05-16T04:56:04.042Z,84.38
2019-05-16T04:57:04.045Z,84.38
2019-05-16T04:58:04.017Z,84.38
2019-05-16T04:59:04.026Z,84.38
2019-05-16T05:00:03.991Z,84.38
2019-05-16T05:01:04.016Z,90.00
2019-05-16T05:02:03.994Z,90.00
2019-05-16T05:03:03.959Z,90.00
2019-05-16T05:04:10.826Z,95.62
2019-05-16T05:05:04.945Z,95.62
2019-05-16T05:06:03.929Z,95.62
2019-05-16T05:07:03.930Z,101.25
2019-05-16T05:08:03.905Z,101.25
2019-05-16T05:09:03.970Z,101.25
2019-05-16T05:10:03.902Z,101.25
2019-05-16T05:11:03.873Z,101.25
2019-05-16T05:12:04.826Z,101.25
2019-05-16T05:13:03.863Z,106.88
2019-05-16T05:14:03.842Z,106.88
2019-05-16T05:15:03.835Z,106.88
2019-05-16T05:16:03.826Z,106.88
2019-05-16T05:17:05.363Z,106.88
2019-05-16T05:18:03.799Z,106.88
2019-05-16T05:19:03.788Z,106.88
2019-05-16T05:20:03.777Z,106.88
2019-05-16T05:21:03.785Z,112.50
2019-05-16T05:22:03.767Z,112.50
2019-05-16T05:23:03.750Z,112.50
2019-05-16T05:24:03.750Z,112.50
2019-05-16T05:25:03.731Z,112.50
2019-05-16T05:26:03.741Z,118.12
2019-05-16T05:27:03.714Z,118.12
2019-05-16T05:28:03.701Z,118.12
2019-05-16T05:29:03.707Z,118.12
2019-05-16T05:30:03.692Z,118.12
2019-05-16T05:31:03.664Z,123.75
2019-05-16T05:32:05.086Z,123.75
2019-05-16T05:33:03.677Z,123.75
2019-05-16T05:34:03.630Z,123.75
2019-05-16T05:35:03.647Z,123.75
2019-05-16T05:36:03.619Z,123.75
2019-05-16T05:37:03.630Z,123.75
2019-05-16T05:38:03.593Z,123.75
2019-05-16T05:39:11.794Z,129.38
2019-05-16T05:40:04.567Z,129.38
2019-05-16T05:41:03.582Z,129.38
2019-05-16T05:42:03.562Z,135.00
2019-05-16T05:43:03.542Z,135.00
2019-05-16T05:44:03.525Z,135.00
2019-05-16T05:45:03.518Z,135.00
2019-05-16T05:46:03.521Z,140.62
2019-05-16T05:47:03.513Z,140.62
2019-05-16T05:48:03.490Z,140.62
2019-05-16T05:49:03.471Z,140.62
2019-05-16T05:50:03.477Z,146.25
2019-05-16T05:51:03.455Z,146.25
2019-05-16T05:52:03.454Z,146.25
2019-05-16T05:53:03.435Z,146.25
2019-05-16T05:54:03.422Z,151.88
2019-05-16T05:55:03.433Z,151.88
2019-05-16T05:56:03.399Z,157.50
2019-05-16T05:57:03.412Z,157.50
2019-05-16T05:58:03.388Z,157.50
2019-05-16T05:59:03.370Z,157.50
2019-05-16T06:00:03.353Z,157.50
2019-05-16T06:01:03.348Z,157.50
2019-05-16T06:02:03.350Z,157.50
2019-05-16T06:03:03.335Z,157.50
2019-05-16T06:04:03.330Z,157.50
2019-05-16T06:05:03.299Z,151.88
2019-05-16T06:06:03.288Z,151.88
2019-05-16T06:07:03.277Z,151.88
2019-05-16T06:08:03.295Z,151.88
2019-05-16T06:09:03.256Z,157.50
2019-05-16T06:10:03.245Z,157.50
2019-05-16T06:11:03.253Z,163.12
2019-05-16T06:12:03.235Z,168.75
2019-05-16T06:13:03.237Z,168.75
2019-05-16T06:14:03.206Z,168.75
2019-05-16T06:15:08.220Z,168.75
2019-05-16T06:16:04.178Z,174.38
2019-05-16T06:17:03.168Z,174.38
2019-05-16T06:18:03.183Z,180.00
2019-05-16T06:19:03.153Z,180.00
2019-05-16T06:20:03.177Z,180.00
2019-05-16T06:21:03.124Z,185.62
2019-05-16T06:22:03.124Z,191.25
2019-05-16T06:23:03.113Z,191.25
2019-05-16T06:24:03.099Z,196.88
2019-05-16T06:25:03.096Z,202.50
2019-05-16T06:26:03.071Z,202.50
2019-05-16T06:27:03.070Z,208.12
2019-05-16T06:28:03.062Z,208.12
2019-05-16T06:29:03.042Z,208.12
2019-05-16T06:30:03.029Z,208.12
2019-05-16T06:31:03.034Z,208.12
2019-05-16T06:32:03.013Z,208.12
2019-05-16T06:33:03.017Z,213.75
2019-05-16T06:34:08.152Z,213.75
2019-05-16T06:35:03.971Z,219.38
2019-05-16T06:36:02.971Z,225.00
2019-05-16T06:37:02.971Z,230.62
2019-05-16T06:38:02.955Z,241.88
2019-05-16T06:39:02.933Z,247.50
2019-05-16T06:40:02.969Z,247.50
2019-05-16T06:41:02.918Z,253.12
2019-05-16T06:42:02.909Z,253.12
2019-05-16T06:43:02.978Z,253.12
2019-05-16T06:44:02.890Z,253.12
2019-05-16T06:45:02.901Z,253.12
2019-05-16T06:46:02.856Z,247.50
2019-05-16T06:47:15.943Z,253.12
2019-05-16T06:48:03.855Z,253.12
2019-05-16T06:49:02.825Z,253.12
2019-05-16T06:50:02.818Z,253.12
2019-05-16T06:51:03.276Z,253.12
2019-05-16T06:52:02.794Z,253.12
2019-05-16T06:53:02.786Z,253.12
2019-05-16T06:54:02.777Z,253.12
2019-05-16T06:55:02.764Z,253.12
2019-05-16T06:56:02.750Z,253.12
2019-05-16T06:57:02.745Z,258.75
2019-05-16T06:58:02.726Z,258.75
2019-05-16T06:59:02.729Z,258.75
2019-05-16T07:00:02.709Z,253.12
2019-05-16T07:01:03.680Z,241.88
2019-05-16T07:02:02.683Z,236.25
2019-05-16T07:03:02.673Z,230.62
2019-05-16T07:04:05.055Z,225.00
2019-05-16T07:05:02.660Z,219.38
2019-05-16T07:06:02.644Z,219.38
2019-05-16T07:07:03.282Z,219.38
2019-05-16T07:08:02.630Z,219.38
2019-05-16T07:09:02.618Z,225.00
2019-05-16T07:10:04.701Z,230.62
2019-05-16T07:11:02.586Z,236.25
2019-05-16T07:12:02.578Z,247.50
2019-05-16T07:13:02.570Z,247.50
2019-05-16T07:14:02.564Z,253.12
2019-05-16T07:15:02.543Z,253.12
2019-05-16T07:16:02.532Z,258.75
2019-05-16T07:17:02.522Z,264.38
2019-05-16T07:18:02.514Z,258.75
2019-05-16T07:19:02.507Z,258.75
2019-05-16T07:20:02.504Z,258.75
2019-05-16T07:21:02.478Z,264.38
2019-05-16T07:22:02.469Z,270.00
2019-05-16T07:23:02.460Z,270.00
2019-05-16T07:24:02.458Z,270.00
2019-05-16T07:25:02.444Z,270.00
2019-05-16T07:26:02.425Z,264.38
2019-05-16T07:27:02.432Z,264.38
2019-05-16T07:28:02.405Z,264.38
2019-05-16T07:29:02.404Z,264.38
2019-05-16T07:30:02.411Z,264.38
2019-05-16T07:31:14.443Z,270.00
2019-05-16T07:32:03.363Z,270.00
2019-05-16T07:33:02.350Z,270.00
2019-05-16T07:34:02.353Z,270.00
2019-05-16T07:35:02.725Z,270.00
2019-05-16T07:36:02.375Z,264.38
2019-05-16T07:37:02.307Z,264.38
2019-05-16T07:38:02.302Z,264.38
2019-05-16T07:39:02.299Z,264.38
2019-05-16T07:40:16.201Z,270.00
2019-05-16T07:41:03.265Z,275.62
2019-05-16T07:42:02.254Z,281.25
2019-05-16T07:43:02.242Z,281.25
2019-05-16T07:44:02.242Z,292.50
2019-05-16T07:45:02.221Z,298.12
2019-05-16T07:46:02.218Z,309.38
2019-05-16T07:47:02.200Z,320.62
2019-05-16T07:48:02.189Z,337.50
2019-05-16T07:49:02.214Z,348.75
2019-05-16T07:50:02.168Z,343.12
2019-05-16T07:51:02.205Z,343.12
2019-05-16T07:52:02.222Z,348.75
2019-05-16T07:53:02.134Z,360.00
2019-05-16T07:54:02.140Z,365.62
2019-05-16T07:55:03.925Z,365.62
2019-05-16T07:56:02.102Z,365.62
2019-05-16T07:57:18.602Z,365.62
2019-05-16T07:58:03.081Z,365.62
2019-05-16T07:59:02.073Z,365.62
2019-05-16T08:00:02.088Z,371.25
2019-05-16T08:01:07.592Z,376.88
2019-05-16T08:02:03.039Z,382.50
2019-05-16T08:03:02.030Z,388.12
2019-05-16T08:04:02.084Z,388.12
2019-05-16T08:05:02.017Z,388.12
2019-05-16T08:06:02.164Z,382.50
2019-05-16T08:07:05.514Z,376.88
2019-05-16T08:08:01.977Z,371.25
2019-05-16T08:09:01.965Z,354.38
2019-05-16T08:10:01.970Z,343.12
2019-05-16T08:11:01.966Z,343.12
2019-05-16T08:12:05.477Z,348.75
2019-05-16T08:13:03.293Z,348.75
2019-05-16T08:14:01.919Z,354.38
2019-05-16T08:15:01.933Z,360.00
2019-05-16T08:16:01.892Z,360.00
2019-05-16T08:17:01.877Z,365.62
2019-05-16T08:18:03.257Z,365.62
2019-05-16T08:19:01.856Z,365.62
2019-05-16T08:20:01.878Z,371.25
2019-05-16T08:21:01.834Z,382.50
2019-05-16T08:22:01.821Z,376.88
2019-05-16T08:23:01.838Z,365.62
2019-05-16T08:24:07.439Z,360.00
2019-05-16T08:25:02.804Z,360.00
2019-05-16T08:26:01.790Z,365.62
2019-05-16T08:27:01.766Z,354.38
2019-05-16T08:28:01.759Z,354.38
2019-05-16T08:29:02.250Z,348.75
2019-05-16T08:30:02.685Z,354.38
2019-05-16T08:31:01.724Z,348.75
2019-05-16T08:32:02.263Z,343.12
2019-05-16T08:33:02.795Z,331.88
2019-05-16T08:34:01.724Z,320.62
2019-05-16T08:35:01.694Z,315.00
2019-05-16T08:37:02.655Z,331.88
2019-05-16T08:38:01.687Z,337.50
2019-05-16T08:39:01.637Z,348.75
2019-05-16T08:40:01.659Z,360.00
2019-05-16T08:42:08.032Z,376.88
2019-05-16T08:43:02.592Z,382.50
2019-05-16T08:44:01.583Z,388.12
2019-05-16T08:45:02.148Z,393.75
2019-05-16T08:46:01.575Z,399.38
2019-05-16T08:47:06.158Z,393.75
2019-05-16T08:48:02.574Z,393.75
2019-05-16T08:49:01.538Z,393.75
2019-05-16T08:50:01.553Z,405.00
2019-05-16T08:51:03.882Z,410.62
2019-05-16T08:52:01.695Z,410.62
2019-05-16T08:53:02.819Z,416.25
2019-05-16T08:54:01.763Z,421.88
2019-05-16T08:56:02.799Z,444.38
2019-05-16T08:57:17.542Z,455.62
2019-05-16T08:58:02.872Z,466.88
2019-05-16T08:59:03.306Z,472.50
2019-05-16T09:00:01.804Z,472.50
2019-05-16T09:01:02.410Z,466.88
2019-05-16T09:02:03.191Z,478.12
2019-05-16T09:03:01.851Z,495.00
2019-05-16T09:04:01.622Z,511.88
2019-05-16T09:06:03.056Z,540.00
2019-05-16T09:07:02.113Z,545.62
2019-05-16T09:08:01.323Z,545.62
2019-05-16T09:09:12.171Z,540.00
2019-05-16T09:10:02.353Z,534.38
2019-05-16T09:10:36.027Z,433.12
2019-05-16T09:10:41.206Z,320.62
2019-05-16T09:11:09.468Z,545.62
2019-05-16T09:12:02.279Z,551.25
2019-05-16T09:13:01.268Z,556.88
2019-05-16T09:14:01.257Z,556.88
2019-05-16T09:15:01.248Z,551.25
2019-05-16T09:16:01.238Z,534.38
2019-05-16T09:17:01.225Z,517.50
2019-05-16T09:18:01.215Z,511.88
2019-05-16T09:18:32.825Z,528.75
2019-05-16T09:18:38.997Z,371.25
2019-05-16T09:19:01.229Z,506.25
2019-05-16T09:20:01.198Z,500.62
2019-05-16T09:21:01.187Z,506.25
2019-05-16T09:22:01.212Z,511.88
2019-05-16T09:23:01.167Z,517.50
2019-05-16T09:24:01.179Z,528.75
2019-05-16T09:25:01.146Z,528.75
2019-05-16T09:26:01.137Z,540.00
2019-05-16T09:27:01.117Z,545.62
2019-05-16T09:28:01.107Z,545.62
2019-05-16T09:29:01.096Z,540.00
2019-05-16T09:30:01.134Z,545.62
2019-05-16T09:31:01.079Z,556.88
2019-05-16T09:32:20.268Z,573.75
2019-05-16T09:33:02.054Z,596.25
2019-05-16T09:34:01.045Z,618.75
2019-05-16T09:35:01.031Z,635.62
2019-05-16T09:36:01.025Z,641.25
2019-05-16T09:37:02.061Z,635.62
2019-05-16T09:38:01.001Z,624.38
2019-05-16T09:39:00.988Z,624.38
2019-05-16T09:40:00.979Z,618.75
2019-05-16T09:41:00.971Z,607.50
2019-05-16T09:42:00.979Z,585.00
2019-05-16T09:43:00.946Z,596.25
2019-05-16T09:44:00.937Z,630.00
2019-05-16T09:45:00.976Z,658.12
2019-05-16T09:46:06.949Z,669.38
2019-05-16T09:47:01.900Z,635.62
2019-05-16T09:48:00.891Z,618.75
2019-05-16T09:49:15.757Z,601.88
2019-05-16T09:50:01.871Z,573.75
2019-05-16T09:51:00.860Z,545.62
2019-05-16T09:52:00.847Z,517.50
2019-05-16T09:53:00.836Z,483.75
2019-05-16T09:54:00.835Z,450.00
2019-05-16T09:55:00.817Z,438.75
2019-05-16T09:56:00.814Z,478.12
2019-05-16T09:57:00.792Z,500.62
2019-05-16T09:58:00.785Z,455.62
2019-05-16T09:59:00.775Z,427.50
2019-05-16T10:00:00.760Z,444.38
2019-05-16T10:01:00.763Z,489.38
2019-05-16T10:02:00.737Z,500.62
2019-05-16T10:03:00.728Z,495.00
2019-05-16T10:04:00.716Z,506.25
2019-05-16T10:05:00.710Z,500.62
2019-05-16T10:06:00.717Z,495.00
2019-05-16T10:07:00.684Z,506.25
2019-05-16T10:08:00.674Z,517.50
2019-05-16T10:09:00.662Z,517.50
2019-05-16T10:10:00.654Z,517.50
2019-05-16T10:11:00.639Z,534.38
2019-05-16T10:12:11.338Z,511.88
2019-05-16T10:13:01.618Z,495.00
2019-05-16T10:14:00.609Z,495.00
2019-05-16T10:15:00.597Z,500.62
2019-05-16T10:16:00.595Z,500.62
2019-05-16T10:17:00.586Z,528.75
2019-05-16T10:18:00.565Z,556.88
2019-05-16T10:19:00.556Z,579.38
2019-05-16T10:20:00.544Z,596.25
2019-05-16T10:21:00.532Z,556.88
2019-05-16T10:22:00.551Z,506.25
2019-05-16T10:23:00.555Z,466.88
2019-05-16T10:24:00.498Z,410.62
2019-05-16T10:25:00.489Z,444.38
2019-05-16T10:26:00.478Z,427.50
2019-05-16T10:27:00.477Z,421.88
2019-05-16T10:28:00.457Z,427.50
2019-05-16T10:29:00.446Z,444.38
2019-05-16T10:30:01.247Z,483.75
2019-05-16T10:31:00.425Z,523.12
2019-05-16T10:32:00.425Z,551.25
2019-05-16T10:33:01.000Z,545.62
2019-05-16T10:34:00.395Z,528.75
2019-05-16T10:35:00.380Z,523.12
2019-05-16T10:36:00.370Z,551.25
2019-05-16T10:37:00.370Z,562.50
2019-05-16T10:38:00.349Z,573.75
2019-05-16T10:39:00.340Z,607.50
2019-05-16T10:40:00.325Z,630.00
2019-05-16T10:41:00.315Z,652.50
2019-05-16T10:42:00.359Z,641.25
2019-05-16T10:43:00.296Z,630.00
2019-05-16T10:44:00.283Z,658.12
2019-05-16T10:45:00.312Z,646.88
2019-05-16T10:46:00.261Z,652.50
2019-05-16T10:47:00.262Z,663.75
2019-05-16T10:48:00.241Z,669.38
2019-05-16T10:49:00.249Z,646.88
2019-05-16T10:50:00.259Z,590.62
2019-05-16T10:51:00.207Z,556.88
2019-05-16T10:52:00.208Z,534.38
2019-05-16T10:53:22.398Z,523.12
2019-05-16T10:54:09.763Z,534.38
2019-05-16T10:55:02.594Z,545.62
2019-05-16T10:56:00.170Z,562.50
2019-05-16T10:57:00.262Z,579.38
2019-05-16T10:58:00.133Z,590.62
2019-05-16T10:59:45.903Z,585.00
2019-05-16T11:00:09.004Z,596.25
2019-05-16T11:01:23.046Z,618.75
2019-05-16T11:02:01.102Z,646.88
2019-05-16T11:03:00.108Z,675.00
2019-05-16T11:04:00.068Z,686.25
2019-05-16T11:05:20.315Z,686.25
2019-05-16T11:06:06.043Z,669.38
2019-05-16T11:07:01.046Z,652.50
2019-05-16T11:08:00.308Z,635.62
2019-05-16T11:09:00.032Z,624.38
2019-05-16T11:10:03.491Z,613.12
2019-05-16T11:10:59.995Z,590.62
2019-05-16T11:11:59.992Z,579.38
2019-05-16T11:12:59.970Z,573.75
2019-05-16T11:13:59.961Z,568.12
2019-05-16T11:14:59.949Z,585.00
2019-05-16T11:15:59.937Z,596.25
2019-05-16T11:16:59.958Z,607.50
2019-05-16T11:18:00.223Z,630.00
2019-05-16T11:19:14.167Z,641.25
2019-05-16T11:20:00.894Z,652.50
2019-05-16T11:20:59.886Z,646.88
2019-05-16T11:21:59.883Z,613.12
2019-05-16T11:22:59.879Z,618.75
2019-05-16T11:23:59.852Z,641.25
2019-05-16T11:24:59.868Z,641.25
2019-05-16T11:25:59.830Z,630.00
2019-05-16T11:26:59.817Z,624.38
2019-05-16T11:27:59.827Z,624.38
2019-05-16T11:28:59.797Z,613.12
2019-05-16T11:29:59.786Z,601.88
2019-05-16T11:31:03.623Z,568.12
2019-05-16T11:31:59.767Z,534.38
2019-05-16T11:32:59.765Z,506.25
2019-05-16T11:33:59.743Z,472.50
2019-05-16T11:34:59.731Z,461.25
2019-05-16T11:35:59.721Z,472.50
2019-05-16T11:36:59.715Z,483.75
2019-05-16T11:37:59.716Z,511.88
2019-05-16T11:39:01.937Z,540.00
2019-05-16T11:39:59.683Z,551.25
2019-05-16T11:40:59.669Z,545.62
2019-05-16T11:41:59.659Z,540.00
2019-05-16T11:43:10.118Z,534.38
2019-05-16T11:44:00.635Z,534.38
2019-05-16T11:44:59.627Z,556.88
2019-05-16T11:45:59.615Z,573.75
2019-05-16T11:46:59.603Z,607.50
2019-05-16T11:47:59.603Z,630.00
2019-05-16T11:48:59.584Z,658.12
2019-05-16T11:49:59.571Z,686.25
2019-05-16T11:50:59.559Z,720.00
2019-05-16T11:51:59.555Z,748.12
2019-05-16T11:52:59.555Z,821.25
2019-05-16T11:54:00.135Z,883.12
2019-05-16T11:54:59.516Z,894.38
2019-05-16T11:56:01.595Z,973.12
2019-05-16T11:56:59.494Z,1035.00
2019-05-16T11:57:59.496Z,1080.00
2019-05-16T11:58:59.477Z,1108.12
2019-05-16T11:59:59.461Z,1029.38
2019-05-16T12:00:59.452Z,945.00
2019-05-16T12:01:59.440Z,883.12
2019-05-16T12:02:59.441Z,759.38
2019-05-16T12:03:59.418Z,736.88
2019-05-16T12:04:59.409Z,748.12
2019-05-16T12:05:59.396Z,753.75
2019-05-16T12:06:59.385Z,770.62
2019-05-16T12:07:59.393Z,798.75
2019-05-16T12:08:59.379Z,815.62
2019-05-16T12:09:59.359Z,810.00
2019-05-16T12:10:59.342Z,793.12
2019-05-16T12:12:03.933Z,838.12
2019-05-16T12:13:00.330Z,871.88
2019-05-16T12:13:59.311Z,978.75
2019-05-16T12:14:59.299Z,1057.50
2019-05-16T12:15:59.287Z,1327.50
2019-05-16T12:16:59.279Z,1451.25
2019-05-16T12:18:04.278Z,1783.12
2019-05-16T12:19:00.253Z,2486.25
2019-05-16T12:19:59.244Z,2829.38
2019-05-16T12:20:59.234Z,2098.12
2019-05-16T12:21:59.223Z,4651.88
2019-05-16T12:22:59.221Z,2604.38
2019-05-16T12:23:59.215Z,3886.88
2019-05-16T12:24:59.192Z,2998.12
2019-05-16T12:26:00.232Z,2182.50
2019-05-16T12:27:00.782Z,1096.88
2019-05-16T12:27:59.163Z,1198.12
2019-05-16T12:28:59.152Z,1057.50
2019-05-16T12:29:59.238Z,1074.38
2019-05-16T12:30:59.129Z,1108.12
2019-05-16T12:32:02.705Z,3076.88
2019-05-16T12:32:59.110Z,4460.62
2019-05-16T12:33:59.862Z,3515.62
2019-05-16T12:34:59.088Z,4685.62
2019-05-16T12:35:59.076Z,4297.50
2019-05-16T12:36:59.080Z,5040.00
2019-05-16T12:37:59.056Z,4831.88
2019-05-16T12:38:59.057Z,4786.88
2019-05-16T12:39:59.037Z,3003.75
2019-05-16T12:40:59.025Z,1552.50
2019-05-16T12:42:00.107Z,1170.00
2019-05-16T12:42:59.006Z,984.38
2019-05-16T12:43:59.010Z,978.75